sensor_id;sensor_type;location;lat;lon;timestamp;pressure;altitude;pressure_sealevel;temperature;humidity
9893;BME280;4985;49.092;8.542;2023-02-12T00:00:47;101362.13;;;12.31;53.51
9893;BME280;4985;49.092;8.542;2023-02-12T00:03:14;101364.75;;;12.31;53.52
9893;BME280;4985;49.092;8.542;2023-02-12T00:05:41;101363.78;;;12.32;53.50
9893;BME280;4985;49.092;8.542;2023-02-12T00:08:08;101365.72;;;12.30;53.54
9893;BME280;4985;49.092;8.542;2023-02-12T00:10:40;101359.59;;;12.29;53.52
9893;BME280;4985;49.092;8.542;2023-02-12T00:13:07;101361.41;;;12.29;53.54
9893;BME280;4985;49.092;8.542;2023-02-12T00:15:37;101369.91;;;12.32;53.54
9893;BME280;4985;49.092;8.542;2023-02-12T00:18:04;101368.94;;;12.33;53.50
9893;BME280;4985;49.092;8.542;2023-02-12T00:20:30;101362.84;;;12.33;53.52
9893;BME280;4985;49.092;8.542;2023-02-12T00:22:57;101366.44;;;12.32;53.53
9893;BME280;4985;49.092;8.542;2023-02-12T00:25:23;101365.47;;;12.33;53.53
9893;BME280;4985;49.092;8.542;2023-02-12T00:27:51;101364.75;;;12.31;53.54
9893;BME280;4985;49.092;8.542;2023-02-12T00:30:18;101369.78;;;12.34;53.54
9893;BME280;4985;49.092;8.542;2023-02-12T00:32:45;101369.78;;;12.34;53.53
9893;BME280;4985;49.092;8.542;2023-02-12T00:35:11;101367.16;;;12.34;53.53
9893;BME280;4985;49.092;8.542;2023-02-12T00:37:38;101364.50;;;12.34;53.53
9893;BME280;4985;49.092;8.542;2023-02-12T00:40:06;101356.59;;;12.34;53.52
9893;BME280;4985;49.092;8.542;2023-02-12T00:42:33;101370.62;;;12.34;53.53
9893;BME280;4985;49.092;8.542;2023-02-12T00:45:00;101378.56;;;12.34;53.53
9893;BME280;4985;49.092;8.542;2023-02-12T00:47:27;101373.41;;;12.33;53.51
9893;BME280;4985;49.092;8.542;2023-02-12T00:49:54;101382.06;;;12.35;53.53
9893;BME280;4985;49.092;8.542;2023-02-12T00:52:20;101386.47;;;12.34;53.52
9893;BME280;4985;49.092;8.542;2023-02-12T00:54:47;101392.63;;;12.35;53.54
9893;BME280;4985;49.092;8.542;2023-02-12T00:57:13;101380.25;;;12.35;53.53
9893;BME280;4985;49.092;8.542;2023-02-12T00:59:40;101371.50;;;12.35;53.55
9893;BME280;4985;49.092;8.542;2023-02-12T01:02:08;101374.12;;;12.35;53.55
9893;BME280;4985;49.092;8.542;2023-02-12T01:04:35;101382.91;;;12.35;53.54
9893;BME280;4985;49.092;8.542;2023-02-12T01:07:01;101379.41;;;12.35;53.54
9893;BME280;4985;49.092;8.542;2023-02-12T01:09:28;101388.06;;;12.37;53.53
9893;BME280;4985;49.092;8.542;2023-02-12T01:11:55;101391.66;;;12.36;53.52
9893;BME280;4985;49.092;8.542;2023-02-12T01:14:21;101402.22;;;12.36;53.53
9893;BME280;4985;49.092;8.542;2023-02-12T01:16:48;101388.06;;;12.37;53.50
9893;BME280;4985;49.092;8.542;2023-02-12T01:19:15;101390.69;;;12.37;53.51
9893;BME280;4985;49.092;8.542;2023-02-12T01:21:43;101393.34;;;12.37;53.53
9893;BME280;4985;49.092;8.542;2023-02-12T01:24:10;101388.91;;;12.37;53.52
9893;BME280;4985;49.092;8.542;2023-02-12T01:26:36;101376.03;;;12.33;53.50
9893;BME280;4985;49.092;8.542;2023-02-12T01:29:05;101377.50;;;12.37;53.51
9893;BME280;4985;49.092;8.542;2023-02-12T01:31:34;101380.13;;;12.37;53.53
9893;BME280;4985;49.092;8.542;2023-02-12T01:34:01;101388.06;;;12.37;53.53
9893;BME280;4985;49.092;8.542;2023-02-12T01:36:30;101382.91;;;12.35;53.54
9893;BME280;4985;49.092;8.542;2023-02-12T01:38:57;101377.50;;;12.37;53.54
9893;BME280;4985;49.092;8.542;2023-02-12T01:41:26;101381.81;;;12.38;53.53
9893;BME280;4985;49.092;8.542;2023-02-12T01:44:15;101379.16;;;12.38;53.51
9893;BME280;4985;49.092;8.542;2023-02-12T01:46:42;101379.16;;;12.38;53.52
9893;BME280;4985;49.092;8.542;2023-02-12T01:49:13;101386.13;;;12.39;53.52
9893;BME280;4985;49.092;8.542;2023-02-12T01:51:42;101384.44;;;12.38;53.52
9893;BME280;4985;49.092;8.542;2023-02-12T01:54:12;101384.44;;;12.38;53.52
9893;BME280;4985;49.092;8.542;2023-02-12T01:56:41;101380.00;;;12.38;53.51
9893;BME280;4985;49.092;8.542;2023-02-12T01:59:08;101362.47;;;12.37;53.52
9893;BME280;4985;49.092;8.542;2023-02-12T02:01:35;101371.25;;;12.38;53.53
9893;BME280;4985;49.092;8.542;2023-02-12T02:04:09;101369.44;;;12.38;53.51
9893;BME280;4985;49.092;8.542;2023-02-12T02:06:43;101369.31;;;12.40;53.50
9893;BME280;4985;49.092;8.542;2023-02-12T02:09:11;101372.09;;;12.38;53.51
9893;BME280;4985;49.092;8.542;2023-02-12T02:11:38;101362.34;;;12.39;53.50
9893;BME280;4985;49.092;8.542;2023-02-12T02:14:22;101360.53;;;12.39;53.51
9893;BME280;4985;49.092;8.542;2023-02-12T02:17:06;101359.72;;;12.39;53.50
9893;BME280;4985;49.092;8.542;2023-02-12T02:19:49;101359.72;;;12.39;53.51
9893;BME280;4985;49.092;8.542;2023-02-12T02:22:28;101360.53;;;12.39;53.53
9893;BME280;4985;49.092;8.542;2023-02-12T02:25:32;101359.72;;;12.39;53.52
9893;BME280;4985;49.092;8.542;2023-02-12T02:28:12;101356.09;;;12.40;53.50
9893;BME280;4985;49.092;8.542;2023-02-12T02:30:51;101362.22;;;12.40;53.50
9893;BME280;4985;49.092;8.542;2023-02-12T02:33:26;101350.81;;;12.40;53.51
9893;BME280;4985;49.092;8.542;2023-02-12T02:36:08;101343.28;;;12.35;53.52
9893;BME280;4985;49.092;8.542;2023-02-12T02:38:41;101354.16;;;12.42;53.52
9893;BME280;4985;49.092;8.542;2023-02-12T02:41:14;101355.13;;;12.41;53.51
9893;BME280;4985;49.092;8.542;2023-02-12T02:43:46;101347.34;;;12.39;53.51
9893;BME280;4985;49.092;8.542;2023-02-12T02:46:19;101350.81;;;12.40;53.51
9893;BME280;4985;49.092;8.542;2023-02-12T02:48:51;101340.12;;;12.41;53.52
9893;BME280;4985;49.092;8.542;2023-02-12T02:51:21;101346.38;;;12.40;53.51
9893;BME280;4985;49.092;8.542;2023-02-12T02:53:53;101349.84;;;12.41;53.54
9893;BME280;4985;49.092;8.542;2023-02-12T02:56:23;101358.63;;;12.41;53.53
9893;BME280;4985;49.092;8.542;2023-02-12T02:58:55;101354.16;;;12.42;53.53
9893;BME280;4985;49.092;8.542;2023-02-12T03:01:27;101348.06;;;12.41;53.51
9893;BME280;4985;49.092;8.542;2023-02-12T03:03:58;101348.87;;;12.42;53.50
9893;BME280;4985;49.092;8.542;2023-02-12T03:06:32;101350.69;;;12.41;53.53
9893;BME280;4985;49.092;8.542;2023-02-12T03:09:12;101343.59;;;12.42;53.52
9893;BME280;4985;49.092;8.542;2023-02-12T03:11:42;101344.44;;;12.42;53.51
9893;BME280;4985;49.092;8.542;2023-02-12T03:14:12;101339.41;;;12.39;53.49
9893;BME280;4985;49.092;8.542;2023-02-12T03:16:48;101343.59;;;12.42;53.50
9893;BME280;4985;49.092;8.542;2023-02-12T03:19:19;101345.28;;;12.43;53.51
9893;BME280;4985;49.092;8.542;2023-02-12T03:21:49;101339.03;;;12.44;53.50
9893;BME280;4985;49.092;8.542;2023-02-12T03:24:20;101342.63;;;12.43;53.49
9893;BME280;4985;49.092;8.542;2023-02-12T03:26:50;101345.28;;;12.43;53.51
9893;BME280;4985;49.092;8.542;2023-02-12T03:29:19;101347.91;;;12.43;53.52
9893;BME280;4985;49.092;8.542;2023-02-12T03:32:04;101349.97;;;12.39;53.51
9893;BME280;4985;49.092;8.542;2023-02-12T03:34:40;101352.25;;;12.44;53.51
9893;BME280;4985;49.092;8.542;2023-02-12T03:37:16;101351.41;;;12.43;53.52
9893;BME280;4985;49.092;8.542;2023-02-12T03:39:50;101354.88;;;12.44;53.49
9893;BME280;4985;49.092;8.542;2023-02-12T03:42:26;101361.00;;;12.44;53.49
9893;BME280;4985;49.092;8.542;2023-02-12T03:44:58;101357.53;;;12.44;53.48
9893;BME280;4985;49.092;8.542;2023-02-12T03:47:36;101349.47;;;12.45;53.47
9893;BME280;4985;49.092;8.542;2023-02-12T03:50:09;101348.63;;;12.45;53.47
9893;BME280;4985;49.092;8.542;2023-02-12T03:52:38;101359.19;;;12.45;53.48
9893;BME280;4985;49.092;8.542;2023-02-12T03:55:05;101360.91;;;12.46;53.46
9893;BME280;4985;49.092;8.542;2023-02-12T03:57:37;101353.91;;;12.45;53.47
9893;BME280;4985;49.092;8.542;2023-02-12T04:00:09;101359.19;;;12.45;53.48
9893;BME280;4985;49.092;8.542;2023-02-12T04:02:38;101346.00;;;12.45;53.48
9893;BME280;4985;49.092;8.542;2023-02-12T04:05:06;101353.06;;;12.44;53.49
9893;BME280;4985;49.092;8.542;2023-02-12T04:07:34;101358.34;;;12.44;53.50
9893;BME280;4985;49.092;8.542;2023-02-12T04:10:02;101366.19;;;12.46;53.47
9893;BME280;4985;49.092;8.542;2023-02-12T04:12:38;101356.56;;;12.45;53.48
9893;BME280;4985;49.092;8.542;2023-02-12T04:15:27;101363.63;;;12.44;53.50
9893;BME280;4985;49.092;8.542;2023-02-12T04:18:06;101359.19;;;12.45;53.47
9893;BME280;4985;49.092;8.542;2023-02-12T04:20:41;101358.50;;;12.43;53.48
9893;BME280;4985;49.092;8.542;2023-02-12T04:23:16;101370.59;;;12.45;53.48
9893;BME280;4985;49.092;8.542;2023-02-12T04:25:52;101369.75;;;12.45;53.48
9893;BME280;4985;49.092;8.542;2023-02-12T04:28:27;101369.66;;;12.46;53.49
9893;BME280;4985;49.092;8.542;2023-02-12T04:30:59;101367.97;;;12.45;53.47
9893;BME280;4985;49.092;8.542;2023-02-12T04:33:33;101368.81;;;12.46;53.48
9893;BME280;4985;49.092;8.542;2023-02-12T04:36:05;101382.03;;;12.46;53.48
9893;BME280;4985;49.092;8.542;2023-02-12T04:38:36;101376.75;;;12.46;53.48
9893;BME280;4985;49.092;8.542;2023-02-12T04:41:05;101382.03;;;12.46;53.48
9893;BME280;4985;49.092;8.542;2023-02-12T04:43:35;101383.72;;;12.47;53.46
9893;BME280;4985;49.092;8.542;2023-02-12T04:46:03;101383.72;;;12.47;53.48
9893;BME280;4985;49.092;8.542;2023-02-12T04:48:31;101384.69;;;12.46;53.48
9893;BME280;4985;49.092;8.542;2023-02-12T04:50:59;101375.78;;;12.47;53.50
9893;BME280;4985;49.092;8.542;2023-02-12T04:53:26;101378.44;;;12.47;53.50
9893;BME280;4985;49.092;8.542;2023-02-12T04:55:52;101388.16;;;12.46;53.48
9893;BME280;4985;49.092;8.542;2023-02-12T04:58:19;101384.69;;;12.46;53.47
9893;BME280;4985;49.092;8.542;2023-02-12T05:00:46;101380.22;;;12.46;53.48
9893;BME280;4985;49.092;8.542;2023-02-12T05:03:12;101388.16;;;12.46;53.48
9893;BME280;4985;49.092;8.542;2023-02-12T05:05:40;101389.00;;;12.47;53.47
9893;BME280;4985;49.092;8.542;2023-02-12T05:08:07;101376.63;;;12.47;53.47
9893;BME280;4985;49.092;8.542;2023-02-12T05:10:33;101365.56;;;12.42;53.47
9893;BME280;4985;49.092;8.542;2023-02-12T05:13:00;101367.03;;;12.46;53.48
9893;BME280;4985;49.092;8.542;2023-02-12T05:15:27;101368.81;;;12.46;53.48
9893;BME280;4985;49.092;8.542;2023-02-12T05:17:53;101371.34;;;12.47;53.48
9893;BME280;4985;49.092;8.542;2023-02-12T05:20:20;101373.16;;;12.47;53.46
9893;BME280;4985;49.092;8.542;2023-02-12T05:22:51;101367.84;;;12.47;53.47
9893;BME280;4985;49.092;8.542;2023-02-12T05:25:18;101373.16;;;12.47;53.48
9893;BME280;4985;49.092;8.542;2023-02-12T05:27:45;101373.97;;;12.47;53.47
9893;BME280;4985;49.092;8.542;2023-02-12T05:30:12;101372.19;;;12.48;53.48
9893;BME280;4985;49.092;8.542;2023-02-12T05:32:38;101368.69;;;12.47;53.48
9893;BME280;4985;49.092;8.542;2023-02-12T05:35:06;101375.78;;;12.47;53.50
9893;BME280;4985;49.092;8.542;2023-02-12T05:37:33;101368.09;;;12.44;53.50
9893;BME280;4985;49.092;8.542;2023-02-12T05:40:02;101368.69;;;12.47;53.48
9893;BME280;4985;49.092;8.542;2023-02-12T05:42:29;101367.84;;;12.47;53.48
9893;BME280;4985;49.092;8.542;2023-02-12T05:44:56;101368.69;;;12.47;53.47
9893;BME280;4985;49.092;8.542;2023-02-12T05:47:22;101364.25;;;12.48;53.46
9893;BME280;4985;49.092;8.542;2023-02-12T05:49:49;101370.38;;;12.48;53.48
9893;BME280;4985;49.092;8.542;2023-02-12T05:52:15;101364.25;;;12.48;53.46
9893;BME280;4985;49.092;8.542;2023-02-12T05:54:42;101367.72;;;12.48;53.48
9893;BME280;4985;49.092;8.542;2023-02-12T05:57:10;101369.53;;;12.48;53.46
9893;BME280;4985;49.092;8.542;2023-02-12T05:59:36;101370.38;;;12.48;53.47
9893;BME280;4985;49.092;8.542;2023-02-12T06:02:03;101370.38;;;12.48;53.48
9893;BME280;4985;49.092;8.542;2023-02-12T06:04:30;101366.91;;;12.48;53.47
9893;BME280;4985;49.092;8.542;2023-02-12T06:06:56;101370.38;;;12.48;53.48
9893;BME280;4985;49.092;8.542;2023-02-12T06:09:23;101365.94;;;12.49;53.47
9893;BME280;4985;49.092;8.542;2023-02-12T06:11:50;101371.22;;;12.49;53.46
9893;BME280;4985;49.092;8.542;2023-02-12T06:14:19;101371.22;;;12.49;53.47
9893;BME280;4985;49.092;8.542;2023-02-12T06:16:47;101368.56;;;12.49;53.46
9893;BME280;4985;49.092;8.542;2023-02-12T06:19:15;101371.22;;;12.49;53.46
9893;BME280;4985;49.092;8.542;2023-02-12T06:21:42;101368.56;;;12.49;53.47
9893;BME280;4985;49.092;8.542;2023-02-12T06:24:10;101371.22;;;12.49;53.45
9893;BME280;4985;49.092;8.542;2023-02-12T06:26:37;101379.00;;;12.50;53.44
9893;BME280;4985;49.092;8.542;2023-02-12T06:29:03;101372.06;;;12.49;53.45
9893;BME280;4985;49.092;8.542;2023-02-12T06:31:33;101379.13;;;12.49;53.46
9893;BME280;4985;49.092;8.542;2023-02-12T06:34:01;101381.78;;;12.49;53.47
9893;BME280;4985;49.092;8.542;2023-02-12T06:36:28;101380.81;;;12.50;53.46
9893;BME280;4985;49.092;8.542;2023-02-12T06:38:55;101394.03;;;12.50;53.46
9893;BME280;4985;49.092;8.542;2023-02-12T06:41:22;101389.00;;;12.47;53.45
9893;BME280;4985;49.092;8.542;2023-02-12T06:43:49;101404.00;;;12.46;53.45
9893;BME280;4985;49.092;8.542;2023-02-12T06:46:16;101403.75;;;12.49;53.45
9893;BME280;4985;49.092;8.542;2023-02-12T06:48:44;101415.16;;;12.50;53.44
9893;BME280;4985;49.092;8.542;2023-02-12T06:51:12;101409.87;;;12.50;53.45
9893;BME280;4985;49.092;8.542;2023-02-12T06:53:39;101416.13;;;12.49;53.45
9893;BME280;4985;49.092;8.542;2023-02-12T06:56:07;101409.03;;;12.49;53.45
9893;BME280;4985;49.092;8.542;2023-02-12T06:58:35;101410.13;;;12.47;53.45
9893;BME280;4985;49.092;8.542;2023-02-12T07:01:10;101416.00;;;12.50;53.43
9893;BME280;4985;49.092;8.542;2023-02-12T07:03:38;101411.56;;;12.51;53.43
9893;BME280;4985;49.092;8.542;2023-02-12T07:06:07;101416.00;;;12.50;53.44
9893;BME280;4985;49.092;8.542;2023-02-12T07:08:34;101419.59;;;12.49;53.47
9893;BME280;4985;49.092;8.542;2023-02-12T07:11:00;101416.84;;;12.51;53.46
9893;BME280;4985;49.092;8.542;2023-02-12T07:13:27;101423.09;;;12.50;53.45
9893;BME280;4985;49.092;8.542;2023-02-12T07:15:53;101419.59;;;12.49;53.47
9893;BME280;4985;49.092;8.542;2023-02-12T07:18:20;101417.81;;;12.50;53.44
9893;BME280;4985;49.092;8.542;2023-02-12T07:20:47;101418.62;;;12.50;53.45
9893;BME280;4985;49.092;8.542;2023-02-12T07:23:14;101415.16;;;12.50;53.47
9893;BME280;4985;49.092;8.542;2023-02-12T07:25:41;101416.84;;;12.51;53.44
9893;BME280;4985;49.092;8.542;2023-02-12T07:28:08;101416.00;;;12.50;53.45
9893;BME280;4985;49.092;8.542;2023-02-12T07:30:34;101416.00;;;12.50;53.46
9893;BME280;4985;49.092;8.542;2023-02-12T07:33:01;101426.56;;;12.50;53.45
9893;BME280;4985;49.092;8.542;2023-02-12T07:35:28;101425.72;;;12.50;53.46
9893;BME280;4985;49.092;8.542;2023-02-12T07:37:54;101410.00;;;12.48;53.46
9893;BME280;4985;49.092;8.542;2023-02-12T07:40:22;101416.84;;;12.51;53.47
9893;BME280;4985;49.092;8.542;2023-02-12T07:42:53;101412.50;;;12.50;53.47
9893;BME280;4985;49.092;8.542;2023-02-12T07:45:20;101418.62;;;12.50;53.47
9893;BME280;4985;49.092;8.542;2023-02-12T07:47:46;101420.44;;;12.50;53.47
9893;BME280;4985;49.092;8.542;2023-02-12T07:50:14;101421.28;;;12.50;53.47
9893;BME280;4985;49.092;8.542;2023-02-12T07:52:40;101410.00;;;12.48;53.47
9893;BME280;4985;49.092;8.542;2023-02-12T07:55:07;101414.19;;;12.51;53.46
9893;BME280;4985;49.092;8.542;2023-02-12T07:57:35;101416.00;;;12.50;53.46
9893;BME280;4985;49.092;8.542;2023-02-12T08:00:03;101411.94;;;12.46;53.45
9893;BME280;4985;49.092;8.542;2023-02-12T08:02:30;101416.84;;;12.51;53.47
9893;BME280;4985;49.092;8.542;2023-02-12T08:04:57;101415.16;;;12.50;53.48
9893;BME280;4985;49.092;8.542;2023-02-12T08:07:24;101417.66;;;12.51;53.47
9893;BME280;4985;49.092;8.542;2023-02-12T08:09:51;101413.22;;;12.52;53.48
9893;BME280;4985;49.092;8.542;2023-02-12T08:12:17;101413.22;;;12.52;53.47
9893;BME280;4985;49.092;8.542;2023-02-12T08:14:45;101412.38;;;12.51;53.49
9893;BME280;4985;49.092;8.542;2023-02-12T08:17:12;101417.66;;;12.51;53.49
9893;BME280;4985;49.092;8.542;2023-02-12T08:19:38;101420.19;;;12.53;53.47
9893;BME280;4985;49.092;8.542;2023-02-12T08:22:05;101409.63;;;12.53;53.47
9893;BME280;4985;49.092;8.542;2023-02-12T08:24:32;101413.22;;;12.52;53.48
9893;BME280;4985;49.092;8.542;2023-02-12T08:26:59;101408.19;;;12.49;53.49
9893;BME280;4985;49.092;8.542;2023-02-12T08:29:27;101412.25;;;12.53;53.48
9893;BME280;4985;49.092;8.542;2023-02-12T08:31:57;101405.16;;;12.53;53.48
9893;BME280;4985;49.092;8.542;2023-02-12T08:34:25;101404.34;;;12.53;53.49
9893;BME280;4985;49.092;8.542;2023-02-12T08:36:53;101405.16;;;12.53;53.49
9893;BME280;4985;49.092;8.542;2023-02-12T08:39:23;101406.97;;;12.53;53.50
9893;BME280;4985;49.092;8.542;2023-02-12T08:41:50;101409.63;;;12.53;53.51
9893;BME280;4985;49.092;8.542;2023-02-12T08:44:17;101414.91;;;12.53;53.52
9893;BME280;4985;49.092;8.542;2023-02-12T08:46:46;101424.50;;;12.54;53.52
9893;BME280;4985;49.092;8.542;2023-02-12T08:49:15;101413.94;;;12.54;53.51
9893;BME280;4985;49.092;8.542;2023-02-12T08:51:44;101424.50;;;12.54;53.52
9893;BME280;4985;49.092;8.542;2023-02-12T08:54:17;101428.25;;;12.51;53.53
9893;BME280;4985;49.092;8.542;2023-02-12T08:56:44;101430.63;;;12.54;53.55
9893;BME280;4985;49.092;8.542;2023-02-12T08:59:12;101432.31;;;12.56;53.55
9893;BME280;4985;49.092;8.542;2023-02-12T09:01:39;101430.63;;;12.54;53.59
9893;BME280;4985;49.092;8.542;2023-02-12T09:04:07;101432.44;;;12.54;53.61
9893;BME280;4985;49.092;8.542;2023-02-12T09:06:35;101428.69;;;12.57;53.61
9893;BME280;4985;49.092;8.542;2023-02-12T09:09:02;101427.84;;;12.56;53.60
9893;BME280;4985;49.092;8.542;2023-02-12T09:11:29;101427.84;;;12.56;53.60
9893;BME280;4985;49.092;8.542;2023-02-12T09:13:56;101422.81;;;12.53;53.60
9893;BME280;4985;49.092;8.542;2023-02-12T09:16:24;101426.94;;;12.57;53.63
9893;BME280;4985;49.092;8.542;2023-02-12T09:18:50;101426.06;;;12.57;53.65
9893;BME280;4985;49.092;8.542;2023-02-12T09:21:17;101428.81;;;12.55;53.65
9893;BME280;4985;49.092;8.542;2023-02-12T09:23:46;101434.09;;;12.55;53.66
9893;BME280;4985;49.092;8.542;2023-02-12T09:26:14;101432.22;;;12.57;53.67
9893;BME280;4985;49.092;8.542;2023-02-12T09:28:41;101433.13;;;12.56;53.67
9893;BME280;4985;49.092;8.542;2023-02-12T09:31:09;101435.69;;;12.58;53.65
9893;BME280;4985;49.092;8.542;2023-02-12T09:33:36;101433.97;;;12.57;53.67
9893;BME280;4985;49.092;8.542;2023-02-12T09:36:04;101432.22;;;12.57;53.68
9893;BME280;4985;49.092;8.542;2023-02-12T09:38:30;101432.22;;;12.57;53.67
9893;BME280;4985;49.092;8.542;2023-02-12T09:41:11;101434.84;;;12.57;53.68
9893;BME280;4985;49.092;8.542;2023-02-12T09:43:43;101433.87;;;12.58;53.65
9893;BME280;4985;49.092;8.542;2023-02-12T09:46:15;101433.03;;;12.58;53.67
9893;BME280;4985;49.092;8.542;2023-02-12T09:48:52;101432.09;;;12.59;53.68
9893;BME280;4985;49.092;8.542;2023-02-12T09:51:23;101443.47;;;12.59;53.67
9893;BME280;4985;49.092;8.542;2023-02-12T09:54:02;101442.53;;;12.60;53.67
9893;BME280;4985;49.092;8.542;2023-02-12T09:56:33;101439.88;;;12.60;53.68
9893;BME280;4985;49.092;8.542;2023-02-12T09:59:02;101438.19;;;12.59;53.69
9893;BME280;4985;49.092;8.542;2023-02-12T10:01:30;101439.88;;;12.60;53.71
9893;BME280;4985;49.092;8.542;2023-02-12T10:03:57;101435.56;;;12.59;53.70
9893;BME280;4985;49.092;8.542;2023-02-12T10:06:26;101432.78;;;12.61;53.71
9893;BME280;4985;49.092;8.542;2023-02-12T10:09:02;101431.94;;;12.60;53.70
9893;BME280;4985;49.092;8.542;2023-02-12T10:11:40;101433.63;;;12.61;53.70
9893;BME280;4985;49.092;8.542;2023-02-12T10:14:20;101428.34;;;12.61;53.70
9893;BME280;4985;49.092;8.542;2023-02-12T10:16:55;101429.31;;;12.60;53.72
9893;BME280;4985;49.092;8.542;2023-02-12T10:19:32;101430.00;;;12.62;53.71
9893;BME280;4985;49.092;8.542;2023-02-12T10:22:11;101433.50;;;12.63;53.71
9893;BME280;4985;49.092;8.542;2023-02-12T10:24:57;101430.97;;;12.61;53.70
9893;BME280;4985;49.092;8.542;2023-02-12T10:27:37;101434.34;;;12.63;53.69
9893;BME280;4985;49.092;8.542;2023-02-12T10:30:13;101426.41;;;12.63;53.70
9893;BME280;4985;49.092;8.542;2023-02-12T10:32:42;101420.53;;;12.60;53.70
9893;BME280;4985;49.092;8.542;2023-02-12T10:35:14;101429.44;;;12.59;53.71
9893;BME280;4985;49.092;8.542;2023-02-12T10:37:43;101439.50;;;12.65;53.71
9893;BME280;4985;49.092;8.542;2023-02-12T10:40:17;101429.75;;;12.65;53.67
9893;BME280;4985;49.092;8.542;2023-02-12T10:42:48;101436.72;;;12.66;53.67
9893;BME280;4985;49.092;8.542;2023-02-12T10:45:18;101428.09;;;12.64;53.67
9893;BME280;4985;49.092;8.542;2023-02-12T10:47:48;101427.81;;;12.67;53.65
9893;BME280;4985;49.092;8.542;2023-02-12T10:50:24;101417.50;;;12.64;53.65
9893;BME280;4985;49.092;8.542;2023-02-12T10:52:55;101418.94;;;12.68;53.67
9893;BME280;4985;49.092;8.542;2023-02-12T10:55:28;101416.81;;;12.62;53.67
9893;BME280;4985;49.092;8.542;2023-02-12T10:57:57;101413.66;;;12.68;53.66
9893;BME280;4985;49.092;8.542;2023-02-12T11:00:28;101412.81;;;12.68;53.66
9893;BME280;4985;49.092;8.542;2023-02-12T11:03:01;101410.06;;;12.69;53.67
9893;BME280;4985;49.092;8.542;2023-02-12T11:05:30;101415.34;;;12.69;53.67
9893;BME280;4985;49.092;8.542;2023-02-12T11:07:57;101402.97;;;12.70;53.67
9893;BME280;4985;49.092;8.542;2023-02-12T11:10:28;101401.19;;;12.70;53.67
9893;BME280;4985;49.092;8.542;2023-02-12T11:12:57;101398.75;;;12.67;53.67
9893;BME280;4985;49.092;8.542;2023-02-12T11:15:26;101402.84;;;12.71;53.67
9893;BME280;4985;49.092;8.542;2023-02-12T11:17:57;101401.19;;;12.70;53.68
9893;BME280;4985;49.092;8.542;2023-02-12T11:20:26;101399.37;;;12.71;53.69
9893;BME280;4985;49.092;8.542;2023-02-12T11:22:56;101403.69;;;12.72;53.70
9893;BME280;4985;49.092;8.542;2023-02-12T11:25:24;101397.56;;;12.71;53.70
9893;BME280;4985;49.092;8.542;2023-02-12T11:28:01;101397.56;;;12.71;53.72
9893;BME280;4985;49.092;8.542;2023-02-12T11:30:28;101388.66;;;12.72;53.73
9893;BME280;4985;49.092;8.542;2023-02-12T11:33:14;101385.19;;;12.72;53.71
9893;BME280;4985;49.092;8.542;2023-02-12T11:35:48;101385.06;;;12.73;53.69
9893;BME280;4985;49.092;8.542;2023-02-12T11:38:22;101386.72;;;12.74;53.70
9893;BME280;4985;49.092;8.542;2023-02-12T11:40:50;101384.09;;;12.74;53.70
9893;BME280;4985;49.092;8.542;2023-02-12T11:43:20;101388.41;;;12.75;53.72
9893;BME280;4985;49.092;8.542;2023-02-12T11:45:51;101380.47;;;12.75;53.72
9893;BME280;4985;49.092;8.542;2023-02-12T11:48:24;101384.09;;;12.74;53.73
9893;BME280;4985;49.092;8.542;2023-02-12T11:50:53;101380.47;;;12.75;53.72
9893;BME280;4985;49.092;8.542;2023-02-12T11:53:23;101382.16;;;12.76;53.72
9893;BME280;4985;49.092;8.542;2023-02-12T11:55:56;101379.50;;;12.76;53.73
9893;BME280;4985;49.092;8.542;2023-02-12T11:58:26;101375.91;;;12.77;53.73
9893;BME280;4985;49.092;8.542;2023-02-12T12:00:58;101371.44;;;12.78;53.70
9893;BME280;4985;49.092;8.542;2023-02-12T12:03:30;101375.66;;;12.80;53.68
9893;BME280;4985;49.092;8.542;2023-02-12T12:06:04;101372.06;;;12.81;53.67
9893;BME280;4985;49.092;8.542;2023-02-12T12:08:35;101371.31;;;12.79;53.66
9893;BME280;4985;49.092;8.542;2023-02-12T12:11:09;101377.34;;;12.81;53.66
9893;BME280;4985;49.092;8.542;2023-02-12T12:13:43;101368.69;;;12.79;53.70
9893;BME280;4985;49.092;8.542;2023-02-12T12:16:17;101370.38;;;12.80;53.71
9893;BME280;4985;49.092;8.542;2023-02-12T12:19:05;101365.09;;;12.80;53.74
9893;BME280;4985;49.092;8.542;2023-02-12T12:21:57;101364.12;;;12.81;53.73
9893;BME280;4985;49.092;8.542;2023-02-12T12:24:34;101362.44;;;12.80;53.72
9893;BME280;4985;49.092;8.542;2023-02-12T12:27:07;101357.03;;;12.82;53.72
9893;BME280;4985;49.092;8.542;2023-02-12T12:29:54;101352.47;;;12.84;53.70
9893;BME280;4985;49.092;8.542;2023-02-12T12:32:24;101352.31;;;12.86;53.69
9893;BME280;4985;49.092;8.542;2023-02-12T12:34:53;101352.31;;;12.86;53.68
9893;BME280;4985;49.092;8.542;2023-02-12T12:37:29;101352.31;;;12.86;53.66
9893;BME280;4985;49.092;8.542;2023-02-12T12:40:18;101341.75;;;12.86;53.69
9893;BME280;4985;49.092;8.542;2023-02-12T12:43:07;101335.06;;;12.81;53.71
9893;BME280;4985;49.092;8.542;2023-02-12T12:45:51;101334.78;;;12.85;53.68
9893;BME280;4985;49.092;8.542;2023-02-12T12:48:32;101342.44;;;12.88;53.67
9893;BME280;4985;49.092;8.542;2023-02-12T12:51:12;101350.38;;;12.88;53.68
9893;BME280;4985;49.092;8.542;2023-02-12T12:53:57;101345.09;;;12.88;53.70
9893;BME280;4985;49.092;8.542;2023-02-12T12:56:39;101329.50;;;12.85;53.70
9893;BME280;4985;49.092;8.542;2023-02-12T13:05:45;101322.97;;;12.89;53.71
9893;BME280;4985;49.092;8.542;2023-02-12T13:08:25;101323.69;;;12.91;53.70
9893;BME280;4985;49.092;8.542;2023-02-12T13:10:59;101316.62;;;12.91;53.69
9893;BME280;4985;49.092;8.542;2023-02-12T13:13:31;101308.69;;;12.91;53.66
9893;BME280;4985;49.092;8.542;2023-02-12T13:16:03;101305.06;;;12.92;53.66
9893;BME280;4985;49.092;8.542;2023-02-12T13:18:45;101307.59;;;12.94;53.62
9893;BME280;4985;49.092;8.542;2023-02-12T13:21:31;101305.66;;;12.96;53.55
9893;BME280;4985;49.092;8.542;2023-02-12T13:24:04;101300.09;;;12.99;53.49
9893;BME280;4985;49.092;8.542;2023-02-12T13:26:41;101288.53;;;13.00;53.44
9893;BME280;4985;49.092;8.542;2023-02-12T13:29:14;101292.88;;;13.01;53.42
9893;BME280;4985;49.092;8.542;2023-02-12T13:31:48;101289.25;;;13.02;53.40
9893;BME280;4985;49.092;8.542;2023-02-12T13:34:17;101288.31;;;13.03;53.36